Time;durP1;ratioP1;P1;durP2;ratioP2;P2;SDS_P1;SDS_P2;PMS_P1;PMS_P2;Temp;Humidity;BMP_temperature;BMP_pressure;BME280_temperature;BME280_humidity;BME280_pressure;Samples;Min_cycle;Max_cycle;Signal;HPM_P1;HPM_P2
2023/09/29 00:01:49;;;;;;;;;;;21.60;54.50;;;;;;10041102;28;94418;-58
2023/09/29 00:06:50;;;;;;;;;;;21.60;54.50;;;;;;10036741;28;94503;-58
2023/09/29 00:11:52;;;;;;;;;;;21.70;54.50;;;;;;10042609;28;94450;-58
2023/09/29 00:16:54;;;;;;;;;;;21.60;54.50;;;;;;10041698;28;94505;-57
2023/09/29 00:21:55;;;;;;;;;;;21.60;54.50;;;;;;10043337;28;94278;-58
2023/09/29 00:26:57;;;;;;;;;;;21.60;54.40;;;;;;10048587;28;93454;-58
2023/09/29 00:31:59;;;;;;;;;;;21.60;54.50;;;;;;10046680;28;92251;-59
2023/09/29 00:37:09;;;;;;;;;;;21.60;54.40;;;;;;10037066;28;93470;-59
2023/09/29 00:42:12;;;;;;;;;;;21.60;54.40;;;;;;10044745;28;93494;-59
2023/09/29 00:47:15;;;;;;;;;;;21.60;54.40;;;;;;10037868;28;95967;-59
2023/09/29 00:52:17;;;;;;;;;;;21.50;54.40;;;;;;10046418;28;93731;-58
2023/09/29 00:57:20;;;;;;;;;;;21.60;54.30;;;;;;10045185;28;94213;-59
2023/09/29 01:02:23;;;;;;;;;;;21.60;54.30;;;;;;10468824;23;93723;-70
2023/09/29 01:07:25;;;;;;;;;;;21.50;54.20;;;;;;9951657;29;95234;-70
2023/09/29 01:12:27;;;;;;;;;;;21.60;54.20;;;;;;9968068;29;93422;-70
2023/09/29 01:17:29;;;;;;;;;;;21.60;54.30;;;;;;9966497;29;94018;-70
2023/09/29 01:22:31;;;;;;;;;;;21.50;54.20;;;;;;9960519;29;93916;-70
2023/09/29 01:27:34;;;;;;;;;;;21.50;54.20;;;;;;9969596;29;93895;-71
2023/09/29 01:32:36;;;;;;;;;;;21.50;54.20;;;;;;9968069;28;95857;-70
2023/09/29 01:37:42;;;;;;;;;;;21.50;54.40;;;;;;9966559;29;97197;-70
2023/09/29 01:42:44;;;;;;;;;;;21.50;54.40;;;;;;9967440;29;93394;-70
2023/09/29 01:47:47;;;;;;;;;;;21.50;54.20;;;;;;9967579;29;93649;-70
2023/09/29 01:52:50;;;;;;;;;;;21.60;54.20;;;;;;9966804;29;94766;-71
2023/09/29 01:57:55;;;;;;;;;;;21.50;54.20;;;;;;9961302;29;94082;-70
2023/09/29 02:03:00;;;;;;;;;;;21.50;54.10;;;;;;9964257;29;93663;-70
2023/09/29 02:08:05;;;;;;;;;;;21.60;54.00;;;;;;9958696;29;93516;-70
2023/09/29 02:13:08;;;;;;;;;;;21.60;54.40;;;;;;9964610;29;92806;-71
2023/09/29 02:18:09;;;;;;;;;;;21.60;55.10;;;;;;9969354;29;93869;-71
2023/09/29 02:23:14;;;;;;;;;;;21.50;55.40;;;;;;9966496;29;93366;-74
2023/09/29 02:28:16;;;;;;;;;;;21.50;55.50;;;;;;9964143;29;96444;-70
2023/09/29 02:33:18;;;;;;;;;;;21.50;55.70;;;;;;9974020;29;93452;-70
2023/09/29 02:38:20;;;;;;;;;;;21.50;55.90;;;;;;9959690;29;93552;-70
2023/09/29 02:43:22;;;;;;;;;;;21.50;56.00;;;;;;9962151;29;95013;-70
2023/09/29 02:48:23;;;;;;;;;;;21.50;56.20;;;;;;9966352;29;93948;-70
2023/09/29 02:53:25;;;;;;;;;;;21.50;56.30;;;;;;9965415;29;94177;-70
2023/09/29 02:58:27;;;;;;;;;;;21.50;56.50;;;;;;9946527;29;93835;-70
2023/09/29 03:03:30;;;;;;;;;;;21.50;56.60;;;;;;9961829;29;96412;-70
2023/09/29 03:08:33;;;;;;;;;;;21.50;56.70;;;;;;9951675;29;95926;-70
2023/09/29 03:13:37;;;;;;;;;;;21.50;56.80;;;;;;9964640;29;95110;-70
2023/09/29 03:18:39;;;;;;;;;;;21.50;57.00;;;;;;9958940;29;97033;-70
2023/09/29 03:23:42;;;;;;;;;;;21.50;57.00;;;;;;9964728;29;93487;-70
2023/09/29 03:28:45;;;;;;;;;;;21.40;57.10;;;;;;9964721;29;94162;-70
2023/09/29 03:33:47;;;;;;;;;;;21.40;57.20;;;;;;9962447;29;93541;-70
2023/09/29 03:38:49;;;;;;;;;;;21.40;57.30;;;;;;9964710;29;93702;-71
2023/09/29 03:43:52;;;;;;;;;;;21.40;57.50;;;;;;9962470;29;96359;-70
2023/09/29 03:48:54;;;;;;;;;;;21.40;57.60;;;;;;9970385;29;93826;-70
2023/09/29 03:53:56;;;;;;;;;;;21.40;57.70;;;;;;9974403;29;93116;-70
2023/09/29 03:58:58;;;;;;;;;;;21.30;57.80;;;;;;9976269;29;94810;-70
2023/09/29 04:04:01;;;;;;;;;;;21.40;57.90;;;;;;9971249;29;93997;-70
2023/09/29 04:09:04;;;;;;;;;;;21.40;57.90;;;;;;9968477;29;95960;-70
2023/09/29 04:14:06;;;;;;;;;;;21.30;57.90;;;;;;9965519;29;93781;-70
2023/09/29 04:19:18;;;;;;;;;;;21.30;58.00;;;;;;9938521;29;93659;-71
2023/09/29 04:24:19;;;;;;;;;;;21.30;58.20;;;;;;9972602;29;93499;-70
2023/09/29 04:29:21;;;;;;;;;;;21.30;58.30;;;;;;9970277;29;93780;-72
2023/09/29 04:34:23;;;;;;;;;;;21.30;58.40;;;;;;9968067;29;94123;-71
2023/09/29 04:39:25;;;;;;;;;;;21.20;58.40;;;;;;9970503;29;93371;-70
2023/09/29 04:44:27;;;;;;;;;;;21.30;58.60;;;;;;9967581;29;93359;-70
2023/09/29 04:49:29;;;;;;;;;;;21.30;58.70;;;;;;9970982;29;93641;-70
2023/09/29 04:54:30;;;;;;;;;;;21.20;58.70;;;;;;9953350;29;94438;-70
2023/09/29 04:59:32;;;;;;;;;;;21.20;58.80;;;;;;9955386;29;95941;-70
2023/09/29 05:04:34;;;;;;;;;;;21.20;58.90;;;;;;9973376;29;93615;-70
2023/09/29 05:09:36;;;;;;;;;;;21.20;58.90;;;;;;9968402;29;94551;-70
2023/09/29 05:14:38;;;;;;;;;;;21.20;59.00;;;;;;9971027;29;94040;-71
2023/09/29 05:19:40;;;;;;;;;;;21.20;59.10;;;;;;9974496;29;92793;-71
2023/09/29 05:24:41;;;;;;;;;;;21.20;59.10;;;;;;9974889;29;94702;-71
2023/09/29 05:29:44;;;;;;;;;;;21.20;59.20;;;;;;9967311;29;94323;-70
2023/09/29 05:34:45;;;;;;;;;;;21.20;59.30;;;;;;9964242;29;93839;-70
2023/09/29 05:39:47;;;;;;;;;;;21.20;59.30;;;;;;9957968;29;93343;-70
2023/09/29 05:44:49;;;;;;;;;;;21.20;59.30;;;;;;9965107;29;93931;-70
2023/09/29 05:49:51;;;;;;;;;;;21.20;59.20;;;;;;9937325;29;97177;-68
2023/09/29 05:55:03;;;;;;;;;;;21.30;59.20;;;;;;9979947;29;93883;-69
2023/09/29 06:00:05;;;;;;;;;;;21.30;60.70;;;;;;9962306;29;94442;-69
2023/09/29 06:05:07;;;;;;;;;;;21.40;60.80;;;;;;9969347;29;94845;-70
2023/09/29 06:10:09;;;;;;;;;;;21.40;60.90;;;;;;9970399;29;93550;-68
2023/09/29 06:15:11;;;;;;;;;;;21.40;60.10;;;;;;9966860;29;94393;-67
2023/09/29 06:20:18;;;;;;;;;;;21.40;60.40;;;;;;9959579;29;93917;-69
2023/09/29 06:25:20;;;;;;;;;;;21.50;60.00;;;;;;9935111;29;94210;-67
2023/09/29 06:30:22;;;;;;;;;;;21.50;60.30;;;;;;9956109;29;93468;-69
2023/09/29 06:35:23;;;;;;;;;;;21.60;60.90;;;;;;9971531;29;94474;-69
2023/09/29 06:40:25;;;;;;;;;;;21.60;60.40;;;;;;9969102;29;96251;-69
2023/09/29 06:45:29;;;;;;;;;;;21.60;59.70;;;;;;9977140;29;94435;-70
2023/09/29 06:50:51;;;;;;;;;;;21.60;59.20;;;;;;9969046;29;93658;-70
2023/09/29 06:55:54;;;;;;;;;;;21.60;58.60;;;;;;9969582;29;93782;-69
2023/09/29 07:00:57;;;;;;;;;;;21.60;58.30;;;;;;9962505;29;93481;-69
2023/09/29 07:06:21;;;;;;;;;;;21.60;58.10;;;;;;9943556;29;97215;-69
2023/09/29 07:11:23;;;;;;;;;;;21.50;57.90;;;;;;9958270;29;95453;-69
2023/09/29 07:16:25;;;;;;;;;;;21.50;57.60;;;;;;9957499;29;92658;-70
2023/09/29 07:21:27;;;;;;;;;;;21.50;57.40;;;;;;9958440;29;93366;-69
2023/09/29 07:26:29;;;;;;;;;;;21.50;57.40;;;;;;9964475;29;93475;-69
2023/09/29 07:31:38;;;;;;;;;;;21.50;57.00;;;;;;9960003;29;96525;-69
2023/09/29 07:36:41;;;;;;;;;;;21.50;56.90;;;;;;9961395;29;95575;-69
2023/09/29 07:41:42;;;;;;;;;;;21.50;56.80;;;;;;9962999;29;94506;-69
2023/09/29 07:46:46;;;;;;;;;;;21.50;56.60;;;;;;9961989;29;94306;-70
2023/09/29 07:51:49;;;;;;;;;;;21.50;56.40;;;;;;9962806;29;94179;-69
2023/09/29 07:56:51;;;;;;;;;;;21.50;56.40;;;;;;9964774;29;94669;-69
2023/09/29 08:01:54;;;;;;;;;;;21.50;56.20;;;;;;9975539;29;93683;-69
2023/09/29 08:06:55;;;;;;;;;;;21.50;56.20;;;;;;9961528;29;93015;-69
2023/09/29 08:11:57;;;;;;;;;;;21.50;56.10;;;;;;9962679;29;93551;-70
2023/09/29 08:16:59;;;;;;;;;;;21.50;55.80;;;;;;9959663;29;94490;-69
2023/09/29 08:22:02;;;;;;;;;;;21.50;55.90;;;;;;9958440;29;96269;-69
2023/09/29 08:27:04;;;;;;;;;;;21.50;55.80;;;;;;9959072;29;94290;-70
2023/09/29 08:32:06;;;;;;;;;;;21.50;55.70;;;;;;9963708;29;94117;-70
2023/09/29 08:37:07;;;;;;;;;;;21.50;55.50;;;;;;9961163;29;93764;-71
2023/09/29 08:42:31;;;;;;;;;;;21.50;55.60;;;;;;9975498;29;94381;-70
2023/09/29 08:47:35;;;;;;;;;;;21.60;55.60;;;;;;9962386;29;94808;-71
2023/09/29 08:52:39;;;;;;;;;;;21.60;55.60;;;;;;9959312;29;94292;-70
2023/09/29 08:57:42;;;;;;;;;;;21.60;55.60;;;;;;9963170;29;92876;-69
2023/09/29 09:02:44;;;;;;;;;;;21.60;55.60;;;;;;9958969;29;94463;-69
2023/09/29 09:07:46;;;;;;;;;;;21.60;55.50;;;;;;9959510;29;94841;-71
2023/09/29 09:12:48;;;;;;;;;;;21.60;55.40;;;;;;9954393;29;96630;-71
2023/09/29 09:17:50;;;;;;;;;;;21.60;55.10;;;;;;9960773;29;93092;-70
2023/09/29 09:22:57;;;;;;;;;;;21.60;55.10;;;;;;9957434;29;93286;-69
2023/09/29 09:27:58;;;;;;;;;;;21.60;55.10;;;;;;9957628;29;94691;-69
2023/09/29 09:33:01;;;;;;;;;;;21.60;55.10;;;;;;9958167;29;94258;-70
2023/09/29 09:38:04;;;;;;;;;;;21.60;54.90;;;;;;9959402;29;94360;-69
2023/09/29 09:43:07;;;;;;;;;;;21.60;54.90;;;;;;9958577;29;94478;-69
2023/09/29 09:48:13;;;;;;;;;;;21.70;55.10;;;;;;9959368;29;92715;-70
2023/09/29 09:53:18;;;;;;;;;;;21.70;55.30;;;;;;9957803;29;94269;-69
2023/09/29 09:58:22;;;;;;;;;;;21.70;55.20;;;;;;9958231;29;93626;-69
2023/09/29 10:03:26;;;;;;;;;;;21.70;55.30;;;;;;9968930;29;96525;-69
2023/09/29 10:08:30;;;;;;;;;;;21.70;55.20;;;;;;9957605;29;93617;-69
2023/09/29 10:13:34;;;;;;;;;;;21.70;55.20;;;;;;9959945;29;93440;-69
2023/09/29 10:18:36;;;;;;;;;;;21.70;55.20;;;;;;9958552;29;93875;-69
2023/09/29 10:23:45;;;;;;;;;;;21.70;55.00;;;;;;9958822;29;93488;-69
2023/09/29 10:28:47;;;;;;;;;;;21.70;55.00;;;;;;9959361;29;93571;-69
2023/09/29 10:33:53;;;;;;;;;;;21.80;55.00;;;;;;9962367;29;94261;-69
2023/09/29 10:38:57;;;;;;;;;;;21.70;55.00;;;;;;9959053;29;92917;-70
2023/09/29 10:44:00;;;;;;;;;;;21.70;55.10;;;;;;9960021;29;95215;-70
2023/09/29 10:49:02;;;;;;;;;;;21.70;54.90;;;;;;9966069;29;93442;-70
2023/09/29 10:54:07;;;;;;;;;;;21.70;55.00;;;;;;9965480;29;95963;-70
2023/09/29 10:59:09;;;;;;;;;;;21.70;54.60;;;;;;9965317;29;94477;-69
2023/09/29 11:04:14;;;;;;;;;;;21.70;54.50;;;;;;9960227;29;114461;-71
2023/09/29 11:09:17;;;;;;;;;;;21.70;55.00;;;;;;9966138;29;94799;-70
2023/09/29 11:14:19;;;;;;;;;;;21.70;54.60;;;;;;9961841;29;93616;-70
2023/09/29 11:19:21;;;;;;;;;;;21.70;54.40;;;;;;9962656;29;94353;-70
2023/09/29 11:24:23;;;;;;;;;;;21.70;54.40;;;;;;9964514;29;93498;-70
2023/09/29 11:29:28;;;;;;;;;;;21.60;54.60;;;;;;9966224;29;94509;-70
2023/09/29 11:34:31;;;;;;;;;;;21.60;54.40;;;;;;9969316;29;94460;-70
2023/09/29 11:39:33;;;;;;;;;;;21.70;54.60;;;;;;9963387;29;94083;-70
2023/09/29 11:44:35;;;;;;;;;;;21.60;54.50;;;;;;9965792;29;95921;-72
2023/09/29 11:49:36;;;;;;;;;;;21.60;54.50;;;;;;9960966;29;94544;-70
2023/09/29 11:54:38;;;;;;;;;;;21.60;56.60;;;;;;9965577;29;94361;-70
2023/09/29 11:59:40;;;;;;;;;;;21.70;57.70;;;;;;9958400;29;95233;-70
2023/09/29 12:04:42;;;;;;;;;;;21.70;57.60;;;;;;9963420;29;93334;-69
2023/09/29 12:09:44;;;;;;;;;;;21.80;56.90;;;;;;9966457;29;94660;-69
2023/09/29 12:14:46;;;;;;;;;;;21.90;56.60;;;;;;9968172;29;94516;-69
2023/09/29 12:19:49;;;;;;;;;;;21.90;56.60;;;;;;9971305;29;93568;-69
2023/09/29 12:24:50;;;;;;;;;;;21.90;56.60;;;;;;9969650;29;95609;-68
2023/09/29 12:29:52;;;;;;;;;;;21.90;56.60;;;;;;9969909;29;93639;-69
2023/09/29 12:34:54;;;;;;;;;;;21.90;56.40;;;;;;9962594;29;96111;-70
2023/09/29 12:39:56;;;;;;;;;;;21.90;56.30;;;;;;9969022;29;93415;-69
2023/09/29 12:44:58;;;;;;;;;;;21.90;56.40;;;;;;9968044;29;93443;-70
2023/09/29 12:50:00;;;;;;;;;;;21.90;56.40;;;;;;9966826;29;94842;-69
2023/09/29 12:55:02;;;;;;;;;;;21.90;56.40;;;;;;9966579;29;97253;-70
2023/09/29 13:00:04;;;;;;;;;;;21.90;56.20;;;;;;9969150;29;94671;-70
2023/09/29 13:05:08;;;;;;;;;;;21.90;56.30;;;;;;9969204;29;94924;-69
2023/09/29 13:10:10;;;;;;;;;;;21.90;56.20;;;;;;9965446;29;92927;-70
2023/09/29 13:15:11;;;;;;;;;;;21.90;56.10;;;;;;9971318;29;94575;-70
2023/09/29 13:20:14;;;;;;;;;;;21.90;56.00;;;;;;9966353;29;94178;-69
2023/09/29 13:25:15;;;;;;;;;;;22.00;56.70;;;;;;9966389;29;96841;-69
2023/09/29 13:30:17;;;;;;;;;;;22.00;56.40;;;;;;9967827;29;93791;-69
2023/09/29 13:35:19;;;;;;;;;;;22.00;56.30;;;;;;9967684;29;93057;-70
2023/09/29 13:40:21;;;;;;;;;;;22.00;56.20;;;;;;9968052;29;93783;-69
2023/09/29 13:45:22;;;;;;;;;;;22.10;56.10;;;;;;9967805;29;94131;-69
2023/09/29 13:50:24;;;;;;;;;;;22.00;56.00;;;;;;9963669;29;93514;-70
2023/09/29 13:55:26;;;;;;;;;;;22.00;55.90;;;;;;9980050;29;93426;-69
2023/09/29 14:00:28;;;;;;;;;;;22.00;56.00;;;;;;9949815;29;93736;-70
2023/09/29 14:05:31;;;;;;;;;;;22.00;56.20;;;;;;9966332;29;94662;-69
2023/09/29 14:10:33;;;;;;;;;;;22.00;56.00;;;;;;9962966;29;94586;-70
2023/09/29 14:15:36;;;;;;;;;;;21.90;56.00;;;;;;9964267;29;95900;-70
2023/09/29 14:20:38;;;;;;;;;;;22.00;55.90;;;;;;9968358;29;93511;-70
2023/09/29 14:25:40;;;;;;;;;;;22.00;55.70;;;;;;9967269;29;93460;-70
2023/09/29 14:30:41;;;;;;;;;;;21.90;56.60;;;;;;9965445;29;94489;-70
2023/09/29 14:35:43;;;;;;;;;;;21.90;55.50;;;;;;9967568;29;94604;-70
2023/09/29 14:40:50;;;;;;;;;;;21.90;55.40;;;;;;9965930;29;94686;-70
2023/09/29 14:45:52;;;;;;;;;;;21.90;55.30;;;;;;9965396;29;94812;-69
2023/09/29 14:50:54;;;;;;;;;;;21.90;55.20;;;;;;9967954;29;93328;-70
2023/09/29 14:55:56;;;;;;;;;;;21.90;55.10;;;;;;9964841;29;94647;-70
2023/09/29 15:00:57;;;;;;;;;;;21.90;55.10;;;;;;9964825;29;94721;-70
2023/09/29 15:06:00;;;;;;;;;;;21.80;55.00;;;;;;9962537;29;96861;-70
2023/09/29 15:11:02;;;;;;;;;;;21.80;55.00;;;;;;9963129;29;94158;-70
2023/09/29 15:16:09;;;;;;;;;;;21.80;55.00;;;;;;9962561;29;94481;-70
2023/09/29 15:21:11;;;;;;;;;;;21.80;55.50;;;;;;9950081;29;93459;-71
2023/09/29 15:26:13;;;;;;;;;;;21.80;55.70;;;;;;9958303;29;94775;-69
2023/09/29 15:31:15;;;;;;;;;;;21.90;56.90;;;;;;9959890;29;94859;-71
2023/09/29 15:36:17;;;;;;;;;;;21.90;57.80;;;;;;9961784;29;94197;-69
2023/09/29 15:41:19;;;;;;;;;;;21.90;58.50;;;;;;9962508;29;93600;-68
2023/09/29 15:46:21;;;;;;;;;;;22.00;59.80;;;;;;9966335;29;93035;-70
2023/09/29 15:51:23;;;;;;;;;;;22.00;60.90;;;;;;9968661;29;96593;-68
2023/09/29 15:56:25;;;;;;;;;;;22.20;64.20;;;;;;9965486;29;96052;-72
2023/09/29 16:01:26;;;;;;;;;;;22.50;65.30;;;;;;9969161;29;93331;-69
2023/09/29 16:06:28;;;;;;;;;;;22.60;64.20;;;;;;9966544;29;94954;-71
2023/09/29 16:11:30;;;;;;;;;;;22.60;63.80;;;;;;9968048;29;95542;-70
2023/09/29 16:16:34;;;;;;;;;;;22.70;63.80;;;;;;9968351;29;94172;-72
2023/09/29 16:21:36;;;;;;;;;;;22.80;63.70;;;;;;9968018;29;94458;-64
2023/09/29 16:26:38;;;;;;;;;;;22.80;63.20;;;;;;9966148;29;94770;-65
2023/09/29 16:31:39;;;;;;;;;;;22.80;63.20;;;;;;9960751;29;94021;-64
2023/09/29 16:36:41;;;;;;;;;;;22.70;63.00;;;;;;9963878;29;94535;-64
2023/09/29 16:41:44;;;;;;;;;;;22.60;62.90;;;;;;9967100;29;93515;-64
2023/09/29 16:46:47;;;;;;;;;;;22.60;63.00;;;;;;9965448;29;96742;-65
2023/09/29 16:51:49;;;;;;;;;;;22.50;63.10;;;;;;9967974;29;93945;-65
2023/09/29 16:56:51;;;;;;;;;;;22.50;63.10;;;;;;9963475;29;93471;-65
2023/09/29 17:01:53;;;;;;;;;;;22.40;63.20;;;;;;9960951;29;93477;-65
2023/09/29 17:06:55;;;;;;;;;;;22.40;63.30;;;;;;9963136;29;94005;-70
2023/09/29 17:11:57;;;;;;;;;;;22.40;63.40;;;;;;9966553;29;94548;-70
2023/09/29 17:16:59;;;;;;;;;;;22.40;63.40;;;;;;9965528;29;94140;-70
2023/09/29 17:22:00;;;;;;;;;;;22.30;63.30;;;;;;9952591;29;93262;-70
2023/09/29 17:27:03;;;;;;;;;;;22.30;64.30;;;;;;9963382;29;94051;-65
2023/09/29 17:32:05;;;;;;;;;;;22.30;63.30;;;;;;9966204;29;94906;-65
2023/09/29 17:37:07;;;;;;;;;;;22.30;63.10;;;;;;9957015;29;96213;-64
2023/09/29 17:42:09;;;;;;;;;;;22.20;62.90;;;;;;9966847;29;93534;-64
2023/09/29 17:47:10;;;;;;;;;;;22.20;62.80;;;;;;9966860;29;94151;-65
2023/09/29 17:52:12;;;;;;;;;;;22.20;62.60;;;;;;9963859;29;94725;-64
2023/09/29 17:57:18;;;;;;;;;;;22.20;62.60;;;;;;9960070;29;93472;-65
2023/09/29 18:02:19;;;;;;;;;;;22.10;62.50;;;;;;9964539;29;95463;-65
2023/09/29 18:07:21;;;;;;;;;;;22.00;62.40;;;;;;9964255;29;93424;-64
2023/09/29 18:12:23;;;;;;;;;;;22.00;62.40;;;;;;9963279;29;92608;-64
2023/09/29 18:17:25;;;;;;;;;;;22.00;62.30;;;;;;9958711;29;94717;-65
2023/09/29 18:22:31;;;;;;;;;;;22.00;62.30;;;;;;9969726;29;93465;-65
2023/09/29 18:27:33;;;;;;;;;;;21.90;62.30;;;;;;9962528;29;95957;-65
2023/09/29 18:32:35;;;;;;;;;;;22.00;62.30;;;;;;9964715;29;93834;-65
2023/09/29 18:37:37;;;;;;;;;;;21.90;62.30;;;;;;9954580;29;93866;-65
2023/09/29 18:42:39;;;;;;;;;;;21.90;62.30;;;;;;9963772;29;94160;-65
2023/09/29 18:47:40;;;;;;;;;;;21.90;62.30;;;;;;9965040;29;93467;-65
2023/09/29 18:52:42;;;;;;;;;;;21.90;63.40;;;;;;9965572;29;94330;-65
2023/09/29 18:57:44;;;;;;;;;;;21.90;62.40;;;;;;9963024;29;93706;-65
2023/09/29 19:02:46;;;;;;;;;;;21.90;62.30;;;;;;9963348;29;93794;-65
2023/09/29 19:07:48;;;;;;;;;;;21.90;62.40;;;;;;9961907;29;94281;-65
2023/09/29 19:12:53;;;;;;;;;;;21.90;62.50;;;;;;9960122;29;95048;-65
2023/09/29 19:17:55;;;;;;;;;;;21.80;62.30;;;;;;9961406;29;97387;-65
2023/09/29 19:22:57;;;;;;;;;;;21.80;62.40;;;;;;9971108;29;93433;-65
2023/09/29 19:27:59;;;;;;;;;;;21.80;62.50;;;;;;9968257;29;92818;-65
2023/09/29 19:33:01;;;;;;;;;;;21.80;62.40;;;;;;9973745;29;93433;-65
2023/09/29 19:38:03;;;;;;;;;;;21.80;62.40;;;;;;9970277;29;93419;-65
2023/09/29 19:43:05;;;;;;;;;;;21.80;62.50;;;;;;9969085;29;94652;-65
2023/09/29 19:48:07;;;;;;;;;;;21.70;62.50;;;;;;9967358;29;94017;-65
2023/09/29 19:53:09;;;;;;;;;;;21.70;62.50;;;;;;9974939;29;93998;-65
2023/09/29 19:58:10;;;;;;;;;;;21.70;62.60;;;;;;9969257;29;94534;-66
2023/09/29 20:03:14;;;;;;;;;;;21.70;62.50;;;;;;9968846;29;94494;-65
2023/09/29 20:08:16;;;;;;;;;;;21.70;62.50;;;;;;9963634;29;97163;-66
2023/09/29 20:13:18;;;;;;;;;;;21.70;62.50;;;;;;9963539;29;93781;-66
2023/09/29 20:18:20;;;;;;;;;;;21.70;62.50;;;;;;9967074;28;95384;-65
2023/09/29 20:23:23;;;;;;;;;;;21.70;62.50;;;;;;9968597;29;93399;-65
2023/09/29 20:28:26;;;;;;;;;;;21.60;61.80;;;;;;9967424;29;94152;-65
2023/09/29 20:33:28;;;;;;;;;;;21.60;61.40;;;;;;9976652;29;93426;-65
2023/09/29 20:38:30;;;;;;;;;;;21.60;60.80;;;;;;9962602;29;94274;-68
2023/09/29 20:43:31;;;;;;;;;;;21.60;60.30;;;;;;9967433;29;93100;-68
2023/09/29 20:48:33;;;;;;;;;;;21.60;60.00;;;;;;9967716;29;94601;-68
2023/09/29 20:53:35;;;;;;;;;;;21.60;59.60;;;;;;9967496;29;94753;-68
2023/09/29 20:58:37;;;;;;;;;;;21.60;59.30;;;;;;9960935;29;97186;-68
2023/09/29 21:03:38;;;;;;;;;;;21.60;58.80;;;;;;9966678;29;94470;-68
2023/09/29 21:08:41;;;;;;;;;;;21.70;58.70;;;;;;9964622;29;94963;-69
2023/09/29 21:13:43;;;;;;;;;;;21.70;58.40;;;;;;9962662;29;94441;-68
2023/09/29 21:18:45;;;;;;;;;;;21.70;58.10;;;;;;9968856;29;93431;-67
2023/09/29 21:23:46;;;;;;;;;;;21.70;58.00;;;;;;9956661;29;94673;-69
2023/09/29 21:28:48;;;;;;;;;;;21.60;57.60;;;;;;9964185;29;94016;-69
2023/09/29 21:33:50;;;;;;;;;;;21.70;57.40;;;;;;9966948;29;93815;-68
2023/09/29 21:38:52;;;;;;;;;;;21.70;57.20;;;;;;9964230;29;93966;-68
2023/09/29 21:43:54;;;;;;;;;;;21.70;57.00;;;;;;9958797;29;93666;-68
2023/09/29 21:48:57;;;;;;;;;;;21.70;56.90;;;;;;9954450;29;95384;-68
2023/09/29 21:53:58;;;;;;;;;;;21.60;56.70;;;;;;9963822;29;94745;-68
2023/09/29 21:59:00;;;;;;;;;;;21.60;56.40;;;;;;9965356;29;93265;-68
2023/09/29 22:04:02;;;;;;;;;;;21.60;56.30;;;;;;9961652;29;94696;-68
2023/09/29 22:09:04;;;;;;;;;;;21.60;56.10;;;;;;9964761;29;96466;-68
2023/09/29 22:14:07;;;;;;;;;;;21.60;56.00;;;;;;9964227;29;93003;-69
2023/09/29 22:19:09;;;;;;;;;;;21.60;55.80;;;;;;9963909;29;93916;-69
2023/09/29 22:24:12;;;;;;;;;;;21.60;56.00;;;;;;9965265;29;92742;-69
2023/09/29 22:29:14;;;;;;;;;;;21.60;55.60;;;;;;9976768;29;94635;-69
2023/09/29 22:34:16;;;;;;;;;;;21.60;55.60;;;;;;9964967;29;94105;-69
2023/09/29 22:39:20;;;;;;;;;;;21.50;55.40;;;;;;9960777;29;96143;-68
2023/09/29 22:44:37;;;;;;;;;;;21.50;55.40;;;;;;9964399;29;94890;-69
2023/09/29 22:49:38;;;;;;;;;;;21.50;55.10;;;;;;9962478;29;93493;-69
2023/09/29 22:54:40;;;;;;;;;;;21.50;55.00;;;;;;9962262;29;93506;-69
2023/09/29 22:59:42;;;;;;;;;;;21.50;55.10;;;;;;9959405;29;93413;-68
2023/09/29 23:04:45;;;;;;;;;;;21.50;55.00;;;;;;9963930;29;96231;-69
2023/09/29 23:09:47;;;;;;;;;;;21.50;54.80;;;;;;9961755;29;94426;-69
2023/09/29 23:14:49;;;;;;;;;;;21.50;54.80;;;;;;9963533;29;92758;-69
2023/09/29 23:19:51;;;;;;;;;;;21.40;54.60;;;;;;9964729;29;94414;-69
2023/09/29 23:24:52;;;;;;;;;;;21.50;54.70;;;;;;9961263;29;93610;-69
2023/09/29 23:29:57;;;;;;;;;;;21.50;54.60;;;;;;9960241;29;96822;-69
2023/09/29 23:34:58;;;;;;;;;;;21.40;54.40;;;;;;9961759;29;94638;-69
2023/09/29 23:40:00;;;;;;;;;;;21.40;54.30;;;;;;9962504;29;93553;-69
2023/09/29 23:45:02;;;;;;;;;;;21.40;54.30;;;;;;9961663;29;94596;-69
2023/09/29 23:50:04;;;;;;;;;;;21.40;54.20;;;;;;9959814;29;93515;-69
2023/09/29 23:55:06;;;;;;;;;;;21.40;54.20;;;;;;9963629;29;94441;-69
